LBSF Airport Information

Runway Information
Runway 09 Length 9186 ft width 147 ft
Elevation 1739 ft Threshold 0 ft Heading 95
Runway 27 Length 9186 ft Width 147 ft
Elevation 1742 ft Threshold 0 ft Heading 275
Airport Frequencies
Type APP Name APP Frequency 123.7 MHZ
Type ATIS Name ATIS Frequency 124.05 MHZ
Type TWR Name TWR Frequency 118.1 MHZ
Airport Navaids
Type NDB Name Bozhourishte Frequency 312 KHZ
Type NDB Name Sofia Frequency 375 KHZ
Type NDB Name Sofia Frequency 335 KHZ
Type NDB Name Sofia Frequency 529 KHZ
Type VOR-DME Name Sofia Frequency 112600 KHZ
Type NDB Name Sofia Frequency 350 KHZ
Airport Weather Information & NOTAM
ADDS - METARS form results

(2323 UTC 24 March 2019)
Data provider http://aviationweather.gov/metar/data/
 
METAR text: LBSF 242300Z 15002KT CAVOK 05/M03 Q1018 NOSIG
Conditions at: LBSF (SOFIA , BG) observed 2300 UTC 24 March 2019
Temperature: 5.0°C (41°F)
Dewpoint: -3.0°C (27°F) [RH = 56%]
Pressure (altimeter): 30.06 inches Hg (1018.0 mb)
Winds: from the SSE (150 degrees) at 2 MPH (2 knots; 1.0 m/s)
Visibility: 6 or more miles (10+ km)
Ceiling: ceiling and visibility are OK
Clouds: unknown
Weather: no significant weather observed at this time

METAR text: LBSF 242230Z 00000KT CAVOK 05/M02 Q1018 NOSIG
Conditions at: LBSF (SOFIA , BG) observed 2230 UTC 24 March 2019
Temperature: 5.0°C (41°F)
Dewpoint: -2.0°C (28°F) [RH = 60%]
Pressure (altimeter): 30.06 inches Hg (1018.0 mb)
Winds: calm
Visibility: 6 or more miles (10+ km)
Ceiling: ceiling and visibility are OK
Clouds: unknown
Weather: no significant weather observed at this time

Forecast for: LBSF (SOFIA , BG)
Text: TAF LBSF 242300Z 2500/2524 VRB04KT CAVOK
Forecast period: 0000 to 0900 UTC 25 March 2019
Forecast type: FROM: standard forecast or significant change
Winds: variable direction winds at 5 MPH (4 knots; 2.1 m/s)
Visibility: 6 or more miles 10+ km)
Ceiling: unknown
Clouds: missing
Weather: NSW  (no significant weather)
Text: TEMPO 2503/2507 3000 BR
Forecast period: 0300 to 0700 UTC 25 March 2019
Forecast type: TEMPORARY: The following changes expected for less than half the time period
Visibility: 1.86 miles (2.99 km)
Ceiling: unknown
Clouds: missing
Weather: BR  (mist)
Text: BECMG 2509/2511 29010KT
Forecast period: 0900 to 1700 UTC 25 March 2019
Forecast type: BECOMING: Conditions expected to become as follows by 1100 UTC 25 March 2019
Winds: from the WNW (290 degrees) at 12 MPH (10 knots; 5.1 m/s)
Visibility: 6 or more miles 10+ km)
Ceiling: unknown
Clouds: missing
Weather: NSW  (no significant weather)
Text: BECMG 2517/2519 VRB04KT
Forecast period: 1700 UTC 25 March 2019 to 0000 UTC 26 March 2019
Forecast type: BECOMING: Conditions expected to become as follows by 1900 UTC 25 March 2019
Winds: variable direction winds at 5 MPH (4 knots; 2.1 m/s)
Visibility: 6 or more miles 10+ km)
Ceiling: unknown
Clouds: missing
Weather: NSW  (no significant weather)